sensor_id;sensor_type;location;lat;lon;timestamp;P1;durP1;ratioP1;P2;durP2;ratioP2
57317;SDS011;43157;50.982;18.132;2023-12-20T00:00:35;27.40;;;10.60;;
57317;SDS011;43157;50.982;18.132;2023-12-20T00:03:03;11.50;;;4.10;;
57317;SDS011;43157;50.982;18.132;2023-12-20T00:05:29;12.50;;;4.90;;
57317;SDS011;43157;50.982;18.132;2023-12-20T00:07:57;10.00;;;3.60;;
57317;SDS011;43157;50.982;18.132;2023-12-20T00:10:23;9.80;;;3.50;;
57317;SDS011;43157;50.982;18.132;2023-12-20T00:12:49;16.30;;;5.20;;
57317;SDS011;43157;50.982;18.132;2023-12-20T00:15:14;28.20;;;9.80;;
57317;SDS011;43157;50.982;18.132;2023-12-20T00:17:40;20.60;;;7.50;;
57317;SDS011;43157;50.982;18.132;2023-12-20T00:20:06;19.40;;;7.20;;
57317;SDS011;43157;50.982;18.132;2023-12-20T00:22:32;17.20;;;5.20;;
57317;SDS011;43157;50.982;18.132;2023-12-20T00:24:57;15.00;;;4.70;;
57317;SDS011;43157;50.982;18.132;2023-12-20T00:27:23;10.70;;;3.20;;
57317;SDS011;43157;50.982;18.132;2023-12-20T00:29:48;10.70;;;3.70;;
57317;SDS011;43157;50.982;18.132;2023-12-20T00:32:15;11.40;;;3.50;;
57317;SDS011;43157;50.982;18.132;2023-12-20T00:34:42;12.30;;;4.10;;
57317;SDS011;43157;50.982;18.132;2023-12-20T00:37:08;11.70;;;4.20;;
57317;SDS011;43157;50.982;18.132;2023-12-20T00:39:33;12.60;;;4.40;;
57317;SDS011;43157;50.982;18.132;2023-12-20T00:41:59;16.30;;;5.40;;
57317;SDS011;43157;50.982;18.132;2023-12-20T00:44:25;17.60;;;6.10;;
57317;SDS011;43157;50.982;18.132;2023-12-20T00:46:50;11.20;;;4.10;;
57317;SDS011;43157;50.982;18.132;2023-12-20T00:49:16;11.60;;;4.10;;
57317;SDS011;43157;50.982;18.132;2023-12-20T00:51:42;17.40;;;4.50;;
57317;SDS011;43157;50.982;18.132;2023-12-20T00:54:08;11.20;;;4.00;;
57317;SDS011;43157;50.982;18.132;2023-12-20T00:56:34;11.10;;;3.70;;
57317;SDS011;43157;50.982;18.132;2023-12-20T00:59:00;11.20;;;3.90;;
57317;SDS011;43157;50.982;18.132;2023-12-20T01:01:26;11.90;;;4.60;;
57317;SDS011;43157;50.982;18.132;2023-12-20T01:03:51;11.90;;;4.60;;
57317;SDS011;43157;50.982;18.132;2023-12-20T01:06:18;10.20;;;4.10;;
57317;SDS011;43157;50.982;18.132;2023-12-20T01:08:43;14.00;;;4.10;;
57317;SDS011;43157;50.982;18.132;2023-12-20T01:11:09;13.10;;;4.70;;
57317;SDS011;43157;50.982;18.132;2023-12-20T01:13:34;17.90;;;6.80;;
57317;SDS011;43157;50.982;18.132;2023-12-20T01:16:00;14.40;;;5.60;;
57317;SDS011;43157;50.982;18.132;2023-12-20T01:18:26;13.50;;;3.90;;
57317;SDS011;43157;50.982;18.132;2023-12-20T01:20:52;15.30;;;5.50;;
57317;SDS011;43157;50.982;18.132;2023-12-20T01:23:17;11.50;;;3.90;;
57317;SDS011;43157;50.982;18.132;2023-12-20T01:25:43;9.90;;;3.80;;
57317;SDS011;43157;50.982;18.132;2023-12-20T01:28:09;10.40;;;3.70;;
57317;SDS011;43157;50.982;18.132;2023-12-20T01:30:34;10.70;;;4.10;;
57317;SDS011;43157;50.982;18.132;2023-12-20T01:33:00;11.00;;;3.60;;
57317;SDS011;43157;50.982;18.132;2023-12-20T01:35:26;12.30;;;4.50;;
57317;SDS011;43157;50.982;18.132;2023-12-20T01:37:52;12.00;;;4.20;;
57317;SDS011;43157;50.982;18.132;2023-12-20T01:40:22;10.40;;;3.90;;
57317;SDS011;43157;50.982;18.132;2023-12-20T01:42:57;9.70;;;3.50;;
57317;SDS011;43157;50.982;18.132;2023-12-20T01:45:26;13.00;;;4.30;;
57317;SDS011;43157;50.982;18.132;2023-12-20T01:47:52;10.00;;;4.00;;
57317;SDS011;43157;50.982;18.132;2023-12-20T01:50:19;10.10;;;4.00;;
57317;SDS011;43157;50.982;18.132;2023-12-20T01:52:45;9.30;;;3.60;;
57317;SDS011;43157;50.982;18.132;2023-12-20T01:55:10;10.50;;;3.90;;
57317;SDS011;43157;50.982;18.132;2023-12-20T01:57:40;10.40;;;4.10;;
57317;SDS011;43157;50.982;18.132;2023-12-20T02:00:07;10.80;;;3.70;;
57317;SDS011;43157;50.982;18.132;2023-12-20T02:02:35;10.90;;;3.40;;
57317;SDS011;43157;50.982;18.132;2023-12-20T02:05:02;8.30;;;3.40;;
57317;SDS011;43157;50.982;18.132;2023-12-20T02:07:29;13.00;;;4.90;;
57317;SDS011;43157;50.982;18.132;2023-12-20T02:09:56;12.70;;;4.60;;
57317;SDS011;43157;50.982;18.132;2023-12-20T02:12:22;10.50;;;4.10;;
57317;SDS011;43157;50.982;18.132;2023-12-20T02:14:48;13.10;;;5.30;;
57317;SDS011;43157;50.982;18.132;2023-12-20T02:17:13;10.50;;;4.00;;
57317;SDS011;43157;50.982;18.132;2023-12-20T02:19:39;13.40;;;5.10;;
57317;SDS011;43157;50.982;18.132;2023-12-20T02:22:06;13.10;;;4.70;;
57317;SDS011;43157;50.982;18.132;2023-12-20T02:24:33;13.20;;;4.70;;
57317;SDS011;43157;50.982;18.132;2023-12-20T02:26:58;13.40;;;5.50;;
57317;SDS011;43157;50.982;18.132;2023-12-20T02:29:24;13.30;;;5.10;;
57317;SDS011;43157;50.982;18.132;2023-12-20T02:31:50;15.30;;;5.30;;
57317;SDS011;43157;50.982;18.132;2023-12-20T02:34:15;11.30;;;4.30;;
57317;SDS011;43157;50.982;18.132;2023-12-20T02:36:41;11.20;;;4.70;;
57317;SDS011;43157;50.982;18.132;2023-12-20T02:39:06;12.70;;;5.20;;
57317;SDS011;43157;50.982;18.132;2023-12-20T02:41:32;11.30;;;4.00;;
57317;SDS011;43157;50.982;18.132;2023-12-20T02:43:57;14.80;;;5.30;;
57317;SDS011;43157;50.982;18.132;2023-12-20T02:46:23;12.20;;;5.20;;
57317;SDS011;43157;50.982;18.132;2023-12-20T02:48:48;11.80;;;4.80;;
57317;SDS011;43157;50.982;18.132;2023-12-20T02:51:14;11.60;;;5.00;;
57317;SDS011;43157;50.982;18.132;2023-12-20T02:53:39;10.10;;;4.40;;
57317;SDS011;43157;50.982;18.132;2023-12-20T02:56:05;13.80;;;5.10;;
57317;SDS011;43157;50.982;18.132;2023-12-20T02:58:31;12.10;;;5.10;;
57317;SDS011;43157;50.982;18.132;2023-12-20T03:00:57;25.00;;;9.60;;
57317;SDS011;43157;50.982;18.132;2023-12-20T03:03:22;25.20;;;10.00;;
57317;SDS011;43157;50.982;18.132;2023-12-20T03:05:48;19.70;;;7.30;;
57317;SDS011;43157;50.982;18.132;2023-12-20T03:08:13;15.10;;;6.10;;
57317;SDS011;43157;50.982;18.132;2023-12-20T03:10:39;18.00;;;6.10;;
57317;SDS011;43157;50.982;18.132;2023-12-20T03:13:04;12.10;;;5.90;;
57317;SDS011;43157;50.982;18.132;2023-12-20T03:15:30;12.70;;;5.30;;
57317;SDS011;43157;50.982;18.132;2023-12-20T03:17:55;15.10;;;6.10;;
57317;SDS011;43157;50.982;18.132;2023-12-20T03:20:21;15.30;;;6.00;;
57317;SDS011;43157;50.982;18.132;2023-12-20T03:22:46;13.50;;;5.30;;
57317;SDS011;43157;50.982;18.132;2023-12-20T03:25:12;14.10;;;7.20;;
57317;SDS011;43157;50.982;18.132;2023-12-20T03:27:38;14.10;;;6.40;;
57317;SDS011;43157;50.982;18.132;2023-12-20T03:30:04;15.20;;;7.20;;
57317;SDS011;43157;50.982;18.132;2023-12-20T03:32:31;15.00;;;6.40;;
57317;SDS011;43157;50.982;18.132;2023-12-20T03:34:57;13.80;;;6.30;;
57317;SDS011;43157;50.982;18.132;2023-12-20T03:37:23;14.40;;;7.40;;
57317;SDS011;43157;50.982;18.132;2023-12-20T03:39:49;14.10;;;6.70;;
57317;SDS011;43157;50.982;18.132;2023-12-20T03:42:14;14.60;;;6.70;;
57317;SDS011;43157;50.982;18.132;2023-12-20T03:44:40;14.10;;;6.10;;
57317;SDS011;43157;50.982;18.132;2023-12-20T03:47:06;14.30;;;6.50;;
57317;SDS011;43157;50.982;18.132;2023-12-20T03:49:32;14.20;;;6.40;;
57317;SDS011;43157;50.982;18.132;2023-12-20T03:51:58;16.20;;;6.80;;
57317;SDS011;43157;50.982;18.132;2023-12-20T03:54:24;16.40;;;6.60;;
57317;SDS011;43157;50.982;18.132;2023-12-20T03:56:50;22.10;;;7.90;;
57317;SDS011;43157;50.982;18.132;2023-12-20T03:59:15;23.30;;;9.20;;
57317;SDS011;43157;50.982;18.132;2023-12-20T04:01:45;16.80;;;7.50;;
57317;SDS011;43157;50.982;18.132;2023-12-20T04:04:10;19.90;;;8.60;;
57317;SDS011;43157;50.982;18.132;2023-12-20T04:06:37;14.30;;;7.00;;
57317;SDS011;43157;50.982;18.132;2023-12-20T04:09:03;15.00;;;6.10;;
57317;SDS011;43157;50.982;18.132;2023-12-20T04:11:29;16.70;;;6.40;;
57317;SDS011;43157;50.982;18.132;2023-12-20T04:13:54;18.30;;;8.80;;
57317;SDS011;43157;50.982;18.132;2023-12-20T04:16:20;15.40;;;8.00;;
57317;SDS011;43157;50.982;18.132;2023-12-20T04:18:45;16.10;;;8.30;;
57317;SDS011;43157;50.982;18.132;2023-12-20T04:21:11;15.00;;;5.20;;
57317;SDS011;43157;50.982;18.132;2023-12-20T04:23:36;18.90;;;8.00;;
57317;SDS011;43157;50.982;18.132;2023-12-20T04:26:02;20.60;;;9.60;;
57317;SDS011;43157;50.982;18.132;2023-12-20T04:28:28;19.70;;;8.60;;
57317;SDS011;43157;50.982;18.132;2023-12-20T04:30:55;18.10;;;7.80;;
57317;SDS011;43157;50.982;18.132;2023-12-20T04:33:21;20.90;;;8.40;;
57317;SDS011;43157;50.982;18.132;2023-12-20T04:35:49;21.20;;;10.20;;
57317;SDS011;43157;50.982;18.132;2023-12-20T04:38:15;17.80;;;8.50;;
57317;SDS011;43157;50.982;18.132;2023-12-20T04:40:40;16.70;;;8.10;;
57317;SDS011;43157;50.982;18.132;2023-12-20T04:43:06;14.90;;;7.70;;
57317;SDS011;43157;50.982;18.132;2023-12-20T04:45:33;14.20;;;6.90;;
57317;SDS011;43157;50.982;18.132;2023-12-20T04:47:59;14.40;;;7.20;;
57317;SDS011;43157;50.982;18.132;2023-12-20T04:50:24;15.30;;;7.70;;
57317;SDS011;43157;50.982;18.132;2023-12-20T04:52:50;14.40;;;6.10;;
57317;SDS011;43157;50.982;18.132;2023-12-20T04:55:16;15.40;;;6.70;;
57317;SDS011;43157;50.982;18.132;2023-12-20T04:57:41;13.80;;;6.50;;
57317;SDS011;43157;50.982;18.132;2023-12-20T05:00:08;13.00;;;5.60;;
57317;SDS011;43157;50.982;18.132;2023-12-20T05:02:37;16.10;;;6.90;;
57317;SDS011;43157;50.982;18.132;2023-12-20T05:05:03;13.20;;;5.50;;
57317;SDS011;43157;50.982;18.132;2023-12-20T05:07:29;16.50;;;7.20;;
57317;SDS011;43157;50.982;18.132;2023-12-20T05:09:54;15.90;;;6.20;;
57317;SDS011;43157;50.982;18.132;2023-12-20T05:12:20;17.00;;;7.50;;
57317;SDS011;43157;50.982;18.132;2023-12-20T05:14:45;16.90;;;7.40;;
57317;SDS011;43157;50.982;18.132;2023-12-20T05:17:11;15.30;;;6.90;;
57317;SDS011;43157;50.982;18.132;2023-12-20T05:19:37;17.90;;;7.80;;
57317;SDS011;43157;50.982;18.132;2023-12-20T05:22:03;14.60;;;6.30;;
57317;SDS011;43157;50.982;18.132;2023-12-20T05:24:29;15.90;;;6.60;;
57317;SDS011;43157;50.982;18.132;2023-12-20T05:26:54;13.60;;;6.00;;
57317;SDS011;43157;50.982;18.132;2023-12-20T05:29:22;13.50;;;5.50;;
57317;SDS011;43157;50.982;18.132;2023-12-20T05:31:48;12.70;;;5.40;;
57317;SDS011;43157;50.982;18.132;2023-12-20T05:34:14;15.30;;;6.00;;
57317;SDS011;43157;50.982;18.132;2023-12-20T05:36:39;13.30;;;5.60;;
57317;SDS011;43157;50.982;18.132;2023-12-20T05:39:05;11.00;;;4.50;;
57317;SDS011;43157;50.982;18.132;2023-12-20T05:41:33;9.30;;;3.70;;
57317;SDS011;43157;50.982;18.132;2023-12-20T05:43:58;10.80;;;4.10;;
57317;SDS011;43157;50.982;18.132;2023-12-20T05:46:24;11.70;;;3.70;;
57317;SDS011;43157;50.982;18.132;2023-12-20T05:48:51;10.00;;;3.00;;
57317;SDS011;43157;50.982;18.132;2023-12-20T05:51:17;12.80;;;3.50;;
57317;SDS011;43157;50.982;18.132;2023-12-20T05:53:43;9.50;;;3.50;;
57317;SDS011;43157;50.982;18.132;2023-12-20T05:56:09;7.70;;;2.40;;
57317;SDS011;43157;50.982;18.132;2023-12-20T05:58:34;6.70;;;2.30;;
57317;SDS011;43157;50.982;18.132;2023-12-20T06:01:00;6.20;;;1.70;;
57317;SDS011;43157;50.982;18.132;2023-12-20T06:03:26;5.90;;;1.90;;
57317;SDS011;43157;50.982;18.132;2023-12-20T06:05:51;6.00;;;1.30;;
57317;SDS011;43157;50.982;18.132;2023-12-20T06:08:17;5.00;;;1.50;;
57317;SDS011;43157;50.982;18.132;2023-12-20T06:10:43;4.80;;;1.40;;
57317;SDS011;43157;50.982;18.132;2023-12-20T06:13:08;6.30;;;1.50;;
57317;SDS011;43157;50.982;18.132;2023-12-20T06:15:34;6.80;;;1.80;;
57317;SDS011;43157;50.982;18.132;2023-12-20T06:18:00;4.90;;;1.30;;
57317;SDS011;43157;50.982;18.132;2023-12-20T06:20:27;6.80;;;1.80;;
57317;SDS011;43157;50.982;18.132;2023-12-20T06:22:52;6.50;;;1.80;;
57317;SDS011;43157;50.982;18.132;2023-12-20T06:25:18;7.70;;;1.80;;
57317;SDS011;43157;50.982;18.132;2023-12-20T06:27:43;14.50;;;3.50;;
57317;SDS011;43157;50.982;18.132;2023-12-20T06:30:09;14.60;;;3.30;;
57317;SDS011;43157;50.982;18.132;2023-12-20T06:32:35;26.20;;;6.10;;
57317;SDS011;43157;50.982;18.132;2023-12-20T06:35:01;20.70;;;4.80;;
57317;SDS011;43157;50.982;18.132;2023-12-20T06:37:27;18.90;;;3.60;;
57317;SDS011;43157;50.982;18.132;2023-12-20T06:39:52;11.30;;;2.60;;
57317;SDS011;43157;50.982;18.132;2023-12-20T06:42:18;9.40;;;2.20;;
57317;SDS011;43157;50.982;18.132;2023-12-20T06:44:43;8.30;;;1.80;;
57317;SDS011;43157;50.982;18.132;2023-12-20T06:47:09;8.70;;;2.00;;
57317;SDS011;43157;50.982;18.132;2023-12-20T06:49:34;9.50;;;2.40;;
57317;SDS011;43157;50.982;18.132;2023-12-20T06:52:00;6.70;;;1.60;;
57317;SDS011;43157;50.982;18.132;2023-12-20T06:54:26;7.10;;;1.60;;
57317;SDS011;43157;50.982;18.132;2023-12-20T06:56:51;6.20;;;1.70;;
57317;SDS011;43157;50.982;18.132;2023-12-20T06:59:17;9.40;;;2.80;;
57317;SDS011;43157;50.982;18.132;2023-12-20T07:01:45;9.00;;;2.40;;
57317;SDS011;43157;50.982;18.132;2023-12-20T07:04:13;8.40;;;2.60;;
57317;SDS011;43157;50.982;18.132;2023-12-20T07:06:38;9.10;;;2.70;;
57317;SDS011;43157;50.982;18.132;2023-12-20T07:09:04;7.60;;;2.00;;
57317;SDS011;43157;50.982;18.132;2023-12-20T07:11:30;5.10;;;1.70;;
57317;SDS011;43157;50.982;18.132;2023-12-20T07:13:55;6.50;;;1.90;;
57317;SDS011;43157;50.982;18.132;2023-12-20T07:16:21;8.30;;;1.70;;
57317;SDS011;43157;50.982;18.132;2023-12-20T07:18:47;9.00;;;2.60;;
57317;SDS011;43157;50.982;18.132;2023-12-20T07:21:13;10.20;;;2.60;;
57317;SDS011;43157;50.982;18.132;2023-12-20T07:23:38;4.90;;;1.30;;
57317;SDS011;43157;50.982;18.132;2023-12-20T07:26:04;9.00;;;2.40;;
57317;SDS011;43157;50.982;18.132;2023-12-20T07:28:29;5.00;;;1.40;;
57317;SDS011;43157;50.982;18.132;2023-12-20T07:44:10;5.40;;;1.10;;
57317;SDS011;43157;50.982;18.132;2023-12-20T07:46:36;7.10;;;1.60;;
57317;SDS011;43157;50.982;18.132;2023-12-20T07:49:01;6.40;;;1.30;;
57317;SDS011;43157;50.982;18.132;2023-12-20T07:51:27;4.90;;;1.20;;
57317;SDS011;43157;50.982;18.132;2023-12-20T07:53:52;8.40;;;1.70;;
57317;SDS011;43157;50.982;18.132;2023-12-20T07:56:18;7.90;;;2.20;;
57317;SDS011;43157;50.982;18.132;2023-12-20T07:58:44;8.00;;;2.00;;
57317;SDS011;43157;50.982;18.132;2023-12-20T08:01:11;5.90;;;1.60;;
57317;SDS011;43157;50.982;18.132;2023-12-20T08:03:37;6.30;;;1.60;;
57317;SDS011;43157;50.982;18.132;2023-12-20T08:06:03;5.20;;;1.20;;
57317;SDS011;43157;50.982;18.132;2023-12-20T08:08:29;10.00;;;2.60;;
57317;SDS011;43157;50.982;18.132;2023-12-20T08:10:55;8.70;;;2.20;;
57317;SDS011;43157;50.982;18.132;2023-12-20T08:13:24;6.30;;;1.60;;
57317;SDS011;43157;50.982;18.132;2023-12-20T08:15:51;6.40;;;2.00;;
57317;SDS011;43157;50.982;18.132;2023-12-20T08:18:17;8.60;;;2.40;;
57317;SDS011;43157;50.982;18.132;2023-12-20T08:20:43;10.80;;;2.80;;
57317;SDS011;43157;50.982;18.132;2023-12-20T08:23:09;9.60;;;3.90;;
57317;SDS011;43157;50.982;18.132;2023-12-20T08:25:35;8.90;;;3.00;;
57317;SDS011;43157;50.982;18.132;2023-12-20T08:28:01;7.10;;;2.70;;
57317;SDS011;43157;50.982;18.132;2023-12-20T08:30:28;10.90;;;3.40;;
57317;SDS011;43157;50.982;18.132;2023-12-20T08:32:54;6.90;;;2.00;;
57317;SDS011;43157;50.982;18.132;2023-12-20T08:35:20;9.70;;;2.90;;
57317;SDS011;43157;50.982;18.132;2023-12-20T08:37:46;10.50;;;3.60;;
57317;SDS011;43157;50.982;18.132;2023-12-20T08:40:12;10.90;;;4.20;;
57317;SDS011;43157;50.982;18.132;2023-12-20T08:42:37;13.00;;;3.90;;
57317;SDS011;43157;50.982;18.132;2023-12-20T08:45:03;11.40;;;3.50;;
57317;SDS011;43157;50.982;18.132;2023-12-20T08:47:29;7.90;;;2.70;;
57317;SDS011;43157;50.982;18.132;2023-12-20T08:49:55;10.70;;;3.80;;
57317;SDS011;43157;50.982;18.132;2023-12-20T08:52:23;9.00;;;3.10;;
57317;SDS011;43157;50.982;18.132;2023-12-20T08:54:49;9.50;;;3.20;;
57317;SDS011;43157;50.982;18.132;2023-12-20T08:57:19;7.90;;;2.50;;
57317;SDS011;43157;50.982;18.132;2023-12-20T08:59:46;10.90;;;2.80;;
57317;SDS011;43157;50.982;18.132;2023-12-20T09:02:13;9.90;;;2.70;;
57317;SDS011;43157;50.982;18.132;2023-12-20T09:04:39;21.30;;;7.00;;
57317;SDS011;43157;50.982;18.132;2023-12-20T09:07:05;22.10;;;6.40;;
57317;SDS011;43157;50.982;18.132;2023-12-20T09:09:31;19.80;;;6.50;;
57317;SDS011;43157;50.982;18.132;2023-12-20T09:11:57;13.40;;;4.80;;
57317;SDS011;43157;50.982;18.132;2023-12-20T09:14:23;14.60;;;5.50;;
57317;SDS011;43157;50.982;18.132;2023-12-20T09:16:49;7.80;;;2.80;;
57317;SDS011;43157;50.982;18.132;2023-12-20T09:19:17;7.30;;;2.40;;
57317;SDS011;43157;50.982;18.132;2023-12-20T09:21:43;9.50;;;3.10;;
57317;SDS011;43157;50.982;18.132;2023-12-20T09:24:08;6.00;;;2.10;;
57317;SDS011;43157;50.982;18.132;2023-12-20T09:26:35;8.00;;;2.30;;
57317;SDS011;43157;50.982;18.132;2023-12-20T09:29:00;7.70;;;2.30;;
57317;SDS011;43157;50.982;18.132;2023-12-20T09:31:26;6.50;;;1.60;;
57317;SDS011;43157;50.982;18.132;2023-12-20T09:33:52;9.00;;;3.20;;
57317;SDS011;43157;50.982;18.132;2023-12-20T09:36:17;7.10;;;2.00;;
57317;SDS011;43157;50.982;18.132;2023-12-20T09:38:43;7.00;;;1.90;;
57317;SDS011;43157;50.982;18.132;2023-12-20T09:41:10;10.70;;;3.10;;
57317;SDS011;43157;50.982;18.132;2023-12-20T09:43:37;11.50;;;4.70;;
57317;SDS011;43157;50.982;18.132;2023-12-20T09:46:03;11.30;;;4.30;;
57317;SDS011;43157;50.982;18.132;2023-12-20T09:48:30;14.90;;;5.30;;
57317;SDS011;43157;50.982;18.132;2023-12-20T09:50:56;12.30;;;4.50;;
57317;SDS011;43157;50.982;18.132;2023-12-20T09:53:22;12.60;;;3.70;;
57317;SDS011;43157;50.982;18.132;2023-12-20T09:55:48;25.40;;;6.90;;
57317;SDS011;43157;50.982;18.132;2023-12-20T09:58:14;9.80;;;3.40;;
57317;SDS011;43157;50.982;18.132;2023-12-20T10:00:40;7.20;;;1.50;;
57317;SDS011;43157;50.982;18.132;2023-12-20T10:03:06;8.00;;;2.60;;
57317;SDS011;43157;50.982;18.132;2023-12-20T10:05:33;12.00;;;4.40;;
57317;SDS011;43157;50.982;18.132;2023-12-20T10:08:00;6.80;;;2.10;;
57317;SDS011;43157;50.982;18.132;2023-12-20T10:10:26;18.10;;;5.90;;
57317;SDS011;43157;50.982;18.132;2023-12-20T10:15:34;10.60;;;3.80;;
57317;SDS011;43157;50.982;18.132;2023-12-20T10:18:03;12.70;;;3.40;;
57317;SDS011;43157;50.982;18.132;2023-12-20T10:20:30;16.30;;;6.70;;
57317;SDS011;43157;50.982;18.132;2023-12-20T10:22:56;14.70;;;4.80;;
57317;SDS011;43157;50.982;18.132;2023-12-20T10:25:22;7.50;;;2.50;;
57317;SDS011;43157;50.982;18.132;2023-12-20T10:27:51;12.40;;;4.00;;
57317;SDS011;43157;50.982;18.132;2023-12-20T10:30:38;9.70;;;2.90;;
57317;SDS011;43157;50.982;18.132;2023-12-20T10:33:05;12.30;;;4.40;;
57317;SDS011;43157;50.982;18.132;2023-12-20T10:35:32;11.50;;;2.90;;
57317;SDS011;43157;50.982;18.132;2023-12-20T10:37:58;13.10;;;4.40;;
57317;SDS011;43157;50.982;18.132;2023-12-20T10:40:28;13.60;;;4.50;;
57317;SDS011;43157;50.982;18.132;2023-12-20T10:42:55;9.70;;;2.80;;
57317;SDS011;43157;50.982;18.132;2023-12-20T10:45:21;10.70;;;3.00;;
57317;SDS011;43157;50.982;18.132;2023-12-20T10:47:49;10.50;;;2.90;;
57317;SDS011;43157;50.982;18.132;2023-12-20T10:50:16;10.50;;;3.10;;
57317;SDS011;43157;50.982;18.132;2023-12-20T10:52:42;10.00;;;3.70;;
57317;SDS011;43157;50.982;18.132;2023-12-20T10:55:10;9.80;;;4.20;;
57317;SDS011;43157;50.982;18.132;2023-12-20T10:57:36;12.00;;;4.90;;
57317;SDS011;43157;50.982;18.132;2023-12-20T11:00:03;7.50;;;2.60;;
57317;SDS011;43157;50.982;18.132;2023-12-20T11:02:32;10.00;;;2.70;;
57317;SDS011;43157;50.982;18.132;2023-12-20T11:07:55;7.70;;;2.50;;
57317;SDS011;43157;50.982;18.132;2023-12-20T11:13:27;8.40;;;2.60;;
57317;SDS011;43157;50.982;18.132;2023-12-20T11:15:55;13.70;;;4.70;;
57317;SDS011;43157;50.982;18.132;2023-12-20T11:18:26;13.10;;;3.70;;
57317;SDS011;43157;50.982;18.132;2023-12-20T11:21:01;21.40;;;6.70;;
57317;SDS011;43157;50.982;18.132;2023-12-20T11:23:29;18.40;;;5.00;;
57317;SDS011;43157;50.982;18.132;2023-12-20T11:25:56;10.10;;;3.50;;
57317;SDS011;43157;50.982;18.132;2023-12-20T11:28:25;13.20;;;3.80;;
57317;SDS011;43157;50.982;18.132;2023-12-20T11:30:52;13.10;;;3.60;;
57317;SDS011;43157;50.982;18.132;2023-12-20T11:33:23;15.30;;;4.00;;
57317;SDS011;43157;50.982;18.132;2023-12-20T11:35:49;12.10;;;3.70;;
57317;SDS011;43157;50.982;18.132;2023-12-20T11:38:15;14.90;;;4.40;;
57317;SDS011;43157;50.982;18.132;2023-12-20T11:40:41;10.40;;;3.10;;
57317;SDS011;43157;50.982;18.132;2023-12-20T11:43:08;18.70;;;5.40;;
57317;SDS011;43157;50.982;18.132;2023-12-20T11:45:34;14.40;;;5.10;;
57317;SDS011;43157;50.982;18.132;2023-12-20T11:48:03;17.00;;;6.30;;
57317;SDS011;43157;50.982;18.132;2023-12-20T11:50:29;15.00;;;6.30;;
57317;SDS011;43157;50.982;18.132;2023-12-20T11:52:56;16.40;;;6.30;;
57317;SDS011;43157;50.982;18.132;2023-12-20T11:55:22;12.40;;;4.50;;
57317;SDS011;43157;50.982;18.132;2023-12-20T11:57:49;17.10;;;6.10;;
57317;SDS011;43157;50.982;18.132;2023-12-20T12:00:16;18.40;;;5.70;;
57317;SDS011;43157;50.982;18.132;2023-12-20T12:02:42;17.80;;;6.50;;
57317;SDS011;43157;50.982;18.132;2023-12-20T12:05:08;12.90;;;4.30;;
57317;SDS011;43157;50.982;18.132;2023-12-20T12:07:34;15.30;;;5.20;;
57317;SDS011;43157;50.982;18.132;2023-12-20T12:10:00;14.90;;;1.80;;
57317;SDS011;43157;50.982;18.132;2023-12-20T12:12:26;16.60;;;4.80;;
57317;SDS011;43157;50.982;18.132;2023-12-20T12:14:53;13.20;;;3.90;;
57317;SDS011;43157;50.982;18.132;2023-12-20T12:17:19;13.90;;;4.60;;
57317;SDS011;43157;50.982;18.132;2023-12-20T12:19:46;15.20;;;4.30;;
57317;SDS011;43157;50.982;18.132;2023-12-20T12:22:12;14.20;;;3.50;;
57317;SDS011;43157;50.982;18.132;2023-12-20T12:24:40;12.90;;;4.00;;
57317;SDS011;43157;50.982;18.132;2023-12-20T12:27:07;8.50;;;2.30;;
57317;SDS011;43157;50.982;18.132;2023-12-20T12:29:33;12.00;;;3.90;;
57317;SDS011;43157;50.982;18.132;2023-12-20T12:31:59;12.90;;;3.30;;
57317;SDS011;43157;50.982;18.132;2023-12-20T12:34:27;7.80;;;1.80;;
57317;SDS011;43157;50.982;18.132;2023-12-20T12:36:53;15.70;;;3.00;;
57317;SDS011;43157;50.982;18.132;2023-12-20T12:39:18;8.10;;;1.60;;
57317;SDS011;43157;50.982;18.132;2023-12-20T12:41:44;10.70;;;2.10;;
57317;SDS011;43157;50.982;18.132;2023-12-20T12:44:10;8.80;;;2.20;;
57317;SDS011;43157;50.982;18.132;2023-12-20T12:46:36;9.90;;;2.30;;
57317;SDS011;43157;50.982;18.132;2023-12-20T12:49:01;8.90;;;2.40;;
57317;SDS011;43157;50.982;18.132;2023-12-20T12:51:27;15.10;;;4.90;;
57317;SDS011;43157;50.982;18.132;2023-12-20T12:53:53;11.80;;;4.60;;
57317;SDS011;43157;50.982;18.132;2023-12-20T12:56:18;15.10;;;3.60;;
57317;SDS011;43157;50.982;18.132;2023-12-20T12:58:44;13.60;;;3.60;;
57317;SDS011;43157;50.982;18.132;2023-12-20T13:01:10;8.30;;;2.10;;
57317;SDS011;43157;50.982;18.132;2023-12-20T13:03:35;6.70;;;1.90;;
57317;SDS011;43157;50.982;18.132;2023-12-20T13:06:01;8.40;;;1.60;;
57317;SDS011;43157;50.982;18.132;2023-12-20T13:08:28;11.10;;;2.70;;
57317;SDS011;43157;50.982;18.132;2023-12-20T13:10:55;10.30;;;2.60;;
57317;SDS011;43157;50.982;18.132;2023-12-20T13:13:20;12.20;;;2.80;;
57317;SDS011;43157;50.982;18.132;2023-12-20T13:15:46;8.60;;;1.90;;
57317;SDS011;43157;50.982;18.132;2023-12-20T13:18:16;15.70;;;5.30;;
57317;SDS011;43157;50.982;18.132;2023-12-20T13:20:44;13.00;;;4.20;;
57317;SDS011;43157;50.982;18.132;2023-12-20T13:23:10;20.80;;;6.60;;
57317;SDS011;43157;50.982;18.132;2023-12-20T13:25:35;9.40;;;1.90;;
57317;SDS011;43157;50.982;18.132;2023-12-20T13:28:01;5.40;;;1.60;;
57317;SDS011;43157;50.982;18.132;2023-12-20T13:30:28;9.90;;;3.20;;
57317;SDS011;43157;50.982;18.132;2023-12-20T13:32:53;18.30;;;6.00;;
57317;SDS011;43157;50.982;18.132;2023-12-20T13:35:19;25.80;;;8.70;;
57317;SDS011;43157;50.982;18.132;2023-12-20T13:37:45;11.70;;;3.30;;
57317;SDS011;43157;50.982;18.132;2023-12-20T13:40:12;18.90;;;4.90;;
57317;SDS011;43157;50.982;18.132;2023-12-20T13:42:38;12.20;;;3.10;;
57317;SDS011;43157;50.982;18.132;2023-12-20T13:45:04;15.50;;;4.90;;
57317;SDS011;43157;50.982;18.132;2023-12-20T13:47:31;14.20;;;4.80;;
57317;SDS011;43157;50.982;18.132;2023-12-20T13:49:57;12.80;;;4.20;;
57317;SDS011;43157;50.982;18.132;2023-12-20T13:52:22;9.80;;;2.20;;
57317;SDS011;43157;50.982;18.132;2023-12-20T13:54:48;16.10;;;6.30;;
57317;SDS011;43157;50.982;18.132;2023-12-20T13:57:13;22.30;;;10.20;;
57317;SDS011;43157;50.982;18.132;2023-12-20T13:59:39;10.80;;;3.70;;
57317;SDS011;43157;50.982;18.132;2023-12-20T14:02:04;8.70;;;2.40;;
57317;SDS011;43157;50.982;18.132;2023-12-20T14:04:30;10.30;;;1.70;;
57317;SDS011;43157;50.982;18.132;2023-12-20T14:06:56;9.60;;;2.60;;
57317;SDS011;43157;50.982;18.132;2023-12-20T14:09:22;16.50;;;3.90;;
57317;SDS011;43157;50.982;18.132;2023-12-20T14:11:48;14.50;;;3.70;;
57317;SDS011;43157;50.982;18.132;2023-12-20T14:14:13;17.40;;;5.10;;
57317;SDS011;43157;50.982;18.132;2023-12-20T14:16:39;14.20;;;4.20;;
57317;SDS011;43157;50.982;18.132;2023-12-20T14:19:04;13.90;;;4.40;;
57317;SDS011;43157;50.982;18.132;2023-12-20T14:21:33;13.00;;;4.40;;
57317;SDS011;43157;50.982;18.132;2023-12-20T14:23:58;9.90;;;2.60;;
57317;SDS011;43157;50.982;18.132;2023-12-20T14:26:25;9.20;;;2.30;;
57317;SDS011;43157;50.982;18.132;2023-12-20T14:28:52;11.80;;;3.00;;
57317;SDS011;43157;50.982;18.132;2023-12-20T14:31:18;10.70;;;2.80;;
57317;SDS011;43157;50.982;18.132;2023-12-20T14:33:44;7.20;;;2.00;;
57317;SDS011;43157;50.982;18.132;2023-12-20T14:36:11;12.10;;;4.50;;
57317;SDS011;43157;50.982;18.132;2023-12-20T14:38:37;27.90;;;9.40;;
57317;SDS011;43157;50.982;18.132;2023-12-20T14:41:02;37.20;;;12.00;;